createdAt,value
2019-02-16T00:00:55.239Z,2.60
2019-02-16T00:03:28.681Z,2.60
2019-02-16T00:06:02.106Z,2.60
2019-02-16T00:08:35.550Z,2.60
2019-02-16T00:11:08.972Z,2.70
2019-02-16T00:13:42.417Z,2.70
2019-02-16T00:16:15.836Z,2.70
2019-02-16T00:18:49.281Z,2.80
2019-02-16T00:21:22.713Z,2.80
2019-02-16T00:23:56.157Z,2.70
2019-02-16T00:26:29.597Z,2.60
2019-02-16T00:29:03.035Z,2.60
2019-02-16T00:31:36.461Z,2.60
2019-02-16T00:34:09.904Z,2.50
2019-02-16T00:36:43.324Z,2.50
2019-02-16T00:39:16.764Z,2.50
2019-02-16T00:41:50.190Z,2.60
2019-02-16T00:44:23.833Z,2.60
2019-02-16T00:46:57.261Z,2.60
2019-02-16T00:49:30.705Z,2.60
2019-02-16T00:52:04.128Z,2.50
2019-02-16T00:54:37.575Z,2.50
2019-02-16T00:57:11.202Z,2.50
2019-02-16T00:59:44.642Z,2.40
2019-02-16T01:02:18.064Z,2.40
2019-02-16T01:04:51.500Z,2.40
2019-02-16T01:07:24.926Z,2.40
2019-02-16T01:09:58.368Z,2.40
2019-02-16T01:12:31.793Z,2.40
2019-02-16T01:15:07.476Z,2.30
2019-02-16T01:17:40.929Z,2.30
2019-02-16T01:20:14.383Z,2.30
2019-02-16T01:22:48.076Z,2.30
2019-02-16T01:25:21.645Z,2.30
2019-02-16T01:27:55.073Z,2.30
2019-02-16T01:30:28.518Z,2.20
2019-02-16T01:33:01.941Z,2.20
2019-02-16T01:35:35.396Z,2.20
2019-02-16T01:38:08.890Z,2.20
2019-02-16T01:40:42.333Z,2.30
2019-02-16T01:43:15.763Z,2.20
2019-02-16T01:45:49.225Z,2.20
2019-02-16T01:48:22.652Z,2.10
2019-02-16T01:50:56.095Z,2.20
2019-02-16T01:53:29.519Z,2.10
2019-02-16T01:56:02.970Z,2.20
2019-02-16T01:58:36.395Z,2.20
2019-02-16T02:01:09.947Z,2.20
2019-02-16T02:03:43.361Z,2.10
2019-02-16T02:06:16.878Z,2.10
2019-02-16T02:08:50.304Z,2.10
2019-02-16T02:11:23.737Z,2.00
2019-02-16T02:13:57.174Z,2.00
2019-02-16T02:16:31.581Z,2.00
2019-02-16T02:19:05.001Z,2.00
2019-02-16T02:21:41.213Z,1.90
2019-02-16T02:24:32.925Z,1.90
2019-02-16T02:27:06.369Z,1.90
2019-02-16T02:29:39.793Z,1.90
2019-02-16T02:32:13.233Z,1.80
2019-02-16T02:34:46.658Z,1.80
2019-02-16T02:37:20.092Z,1.80
2019-02-16T02:39:53.669Z,1.80
2019-02-16T02:42:27.108Z,1.70
2019-02-16T02:45:00.532Z,1.60
2019-02-16T02:47:33.974Z,1.60
2019-02-16T02:50:07.991Z,1.70
2019-02-16T02:52:41.449Z,1.70
2019-02-16T02:55:14.883Z,1.70
2019-02-16T02:57:48.347Z,1.60
2019-02-16T03:00:21.862Z,1.60
2019-02-16T03:02:55.322Z,1.60
2019-02-16T03:05:28.742Z,1.60
2019-02-16T03:08:02.198Z,1.60
2019-02-16T03:10:35.742Z,1.70
2019-02-16T03:13:09.517Z,1.60
2019-02-16T03:15:42.949Z,1.60
2019-02-16T03:18:16.390Z,1.60
2019-02-16T03:20:49.826Z,1.60
2019-02-16T03:23:23.272Z,1.70
2019-02-16T03:26:02.369Z,1.70
2019-02-16T03:28:41.561Z,1.70
2019-02-16T03:31:34.821Z,1.60
2019-02-16T03:34:26.235Z,1.60
2019-02-16T03:37:26.606Z,1.50
2019-02-16T03:40:00.052Z,1.50
2019-02-16T03:42:33.476Z,1.50
2019-02-16T03:45:07.855Z,1.50
2019-02-16T03:47:41.286Z,1.50
2019-02-16T03:50:14.728Z,1.40
2019-02-16T03:52:48.204Z,1.40
2019-02-16T03:55:21.757Z,1.30
2019-02-16T03:57:55.281Z,1.30
2019-02-16T04:00:28.720Z,1.30
2019-02-16T04:03:02.168Z,1.20
2019-02-16T04:05:35.601Z,1.20
2019-02-16T04:08:09.021Z,1.10
2019-02-16T04:10:42.467Z,1.00
2019-02-16T04:13:15.894Z,1.00
2019-02-16T04:15:49.329Z,1.00
2019-02-16T04:18:22.761Z,1.00
2019-02-16T04:20:56.209Z,0.90
2019-02-16T04:23:29.700Z,1.00
2019-02-16T04:26:04.814Z,0.90
2019-02-16T04:28:38.273Z,1.00
2019-02-16T04:31:11.717Z,1.00
2019-02-16T04:33:45.144Z,1.10
2019-02-16T04:36:18.589Z,1.10
2019-02-16T04:38:52.015Z,1.10
2019-02-16T04:41:25.451Z,1.10
2019-02-16T04:43:58.874Z,1.10
2019-02-16T04:46:32.332Z,1.20
2019-02-16T04:49:05.822Z,1.20
2019-02-16T04:51:39.266Z,1.10
2019-02-16T04:54:12.697Z,1.00
2019-02-16T04:56:46.130Z,1.00
2019-02-16T04:59:19.559Z,1.10
2019-02-16T05:01:52.993Z,1.10
2019-02-16T05:04:26.435Z,1.10
2019-02-16T05:06:59.872Z,1.10
2019-02-16T05:09:33.297Z,1.10
2019-02-16T05:12:06.738Z,1.10
2019-02-16T05:14:40.160Z,1.10
2019-02-16T05:17:13.597Z,1.10
2019-02-16T05:19:47.029Z,1.00
2019-02-16T05:22:20.480Z,1.00
2019-02-16T05:24:53.903Z,0.90
2019-02-16T05:27:27.343Z,0.90
2019-02-16T05:30:00.778Z,1.00
2019-02-16T05:32:34.212Z,1.00
2019-02-16T05:35:07.647Z,1.10
2019-02-16T05:37:41.181Z,1.10
2019-02-16T05:40:14.611Z,1.10
2019-02-16T05:42:48.203Z,1.10
2019-02-16T05:45:21.863Z,1.00
2019-02-16T05:47:55.322Z,1.00
2019-02-16T05:50:28.752Z,1.00
2019-02-16T05:53:02.247Z,1.00
2019-02-16T05:55:35.740Z,1.00
2019-02-16T05:58:09.205Z,1.00
2019-02-16T06:00:42.653Z,0.90
2019-02-16T06:03:16.102Z,0.90
2019-02-16T06:05:49.593Z,1.00
2019-02-16T06:08:23.137Z,1.10
2019-02-16T06:10:56.560Z,1.10
2019-02-16T06:13:29.998Z,1.00
2019-02-16T06:16:03.425Z,0.90
2019-02-16T06:18:36.866Z,0.80
2019-02-16T06:21:10.296Z,0.80
2019-02-16T06:23:43.728Z,0.70
2019-02-16T06:26:17.167Z,0.60
2019-02-16T06:28:50.618Z,0.40
2019-02-16T06:31:24.054Z,0.40
2019-02-16T06:33:57.481Z,0.20
2019-02-16T06:36:32.549Z,0.00
2019-02-16T06:39:06.061Z,0.00
2019-02-16T06:41:39.514Z,0.00
2019-02-16T06:44:12.957Z,-0.10
2019-02-16T06:46:46.419Z,-0.10
2019-02-16T06:49:19.841Z,0.10
2019-02-16T06:51:53.270Z,0.20
2019-02-16T06:54:26.711Z,0.30
2019-02-16T06:57:01.780Z,0.40
2019-02-16T06:59:35.205Z,0.50
2019-02-16T07:02:08.641Z,0.50
2019-02-16T07:04:42.085Z,0.60
2019-02-16T07:07:15.520Z,0.70
2019-02-16T07:09:48.951Z,0.80
2019-02-16T07:12:22.381Z,0.70
2019-02-16T07:14:55.834Z,0.80
2019-02-16T07:17:30.921Z,0.80
2019-02-16T07:20:05.398Z,0.80
2019-02-16T07:22:38.841Z,0.90
2019-02-16T07:25:12.281Z,0.90
2019-02-16T07:27:45.720Z,0.90
2019-02-16T07:30:19.161Z,0.80
2019-02-16T07:32:52.594Z,0.80
2019-02-16T07:35:26.048Z,0.80
2019-02-16T07:37:59.509Z,0.90
2019-02-16T07:40:32.953Z,1.00
2019-02-16T07:43:07.749Z,1.00
2019-02-16T07:45:42.821Z,1.10
2019-02-16T07:48:23.927Z,1.20
2019-02-16T07:50:59.048Z,1.20
2019-02-16T07:53:36.830Z,1.20
2019-02-16T07:56:24.109Z,1.30
2019-02-16T07:58:59.218Z,1.30
2019-02-16T08:01:46.229Z,1.40
2019-02-16T08:04:33.298Z,1.40
2019-02-16T08:07:11.072Z,1.40
2019-02-16T08:10:04.421Z,1.40
2019-02-16T08:12:39.497Z,1.50
2019-02-16T08:15:20.506Z,1.60
2019-02-16T08:17:55.608Z,1.70
2019-02-16T08:20:30.681Z,1.90
2019-02-16T08:23:11.738Z,2.00
2019-02-16T08:25:49.555Z,2.00
2019-02-16T08:28:24.643Z,2.20
2019-02-16T08:31:05.493Z,2.30
2019-02-16T08:33:40.603Z,2.40
2019-02-16T08:36:18.717Z,2.50
2019-02-16T08:39:09.669Z,2.50
2019-02-16T08:41:44.744Z,2.60
2019-02-16T08:44:22.489Z,2.70
2019-02-16T08:47:00.550Z,2.80
2019-02-16T08:49:35.689Z,2.80
2019-02-16T08:52:16.254Z,2.90
2019-02-16T08:55:09.381Z,3.00
2019-02-16T08:58:00.928Z,3.20
2019-02-16T09:00:47.961Z,3.30
2019-02-16T09:03:31.826Z,3.40
2019-02-16T09:06:23.484Z,3.60
2019-02-16T09:09:01.652Z,3.60
2019-02-16T09:11:36.717Z,3.70
2019-02-16T09:14:20.694Z,3.80
2019-02-16T09:17:01.461Z,3.80
2019-02-16T09:19:39.477Z,3.80
2019-02-16T09:22:20.463Z,3.80
2019-02-16T09:24:58.259Z,4.00
2019-02-16T09:27:33.390Z,4.10
2019-02-16T09:30:11.787Z,4.30
2019-02-16T09:32:49.820Z,4.40
2019-02-16T09:35:27.884Z,4.50
2019-02-16T09:38:15.167Z,4.60
2019-02-16T09:40:50.269Z,4.70
2019-02-16T09:43:30.785Z,4.80
2019-02-16T09:46:22.129Z,4.90
2019-02-16T09:49:09.159Z,5.00
2019-02-16T09:51:47.288Z,5.10
2019-02-16T09:54:22.362Z,5.20
2019-02-16T09:57:03.184Z,5.30
2019-02-16T09:59:38.277Z,5.40
2019-02-16T10:02:13.353Z,5.50
2019-02-16T10:04:48.421Z,5.60
2019-02-16T10:07:39.764Z,5.70
2019-02-16T10:10:20.862Z,5.80
2019-02-16T10:13:10.905Z,5.90
2019-02-16T10:16:02.410Z,6.00
2019-02-16T10:18:43.425Z,6.20
2019-02-16T10:21:18.510Z,6.30
2019-02-16T10:24:05.785Z,6.30
2019-02-16T10:26:40.878Z,6.30
2019-02-16T10:29:32.421Z,6.40
2019-02-16T10:32:16.489Z,6.40
2019-02-16T10:34:54.240Z,6.50
2019-02-16T10:37:44.527Z,6.60
2019-02-16T10:40:22.363Z,6.80
2019-02-16T10:43:00.224Z,6.90
2019-02-16T10:45:51.606Z,7.00
2019-02-16T10:48:26.693Z,7.10
2019-02-16T10:51:01.762Z,7.20
2019-02-16T10:53:39.536Z,7.20
2019-02-16T10:56:14.603Z,7.30
2019-02-16T10:58:55.838Z,7.40
2019-02-16T11:01:31.037Z,7.50
2019-02-16T11:04:06.108Z,7.60
2019-02-16T11:06:41.197Z,7.70
2019-02-16T11:09:22.229Z,7.80
2019-02-16T11:12:03.041Z,7.90
2019-02-16T11:14:41.070Z,8.00
2019-02-16T11:17:18.809Z,8.10
2019-02-16T11:19:56.529Z,8.20
2019-02-16T11:22:48.054Z,8.20
2019-02-16T11:25:29.181Z,8.30
2019-02-16T11:28:21.803Z,8.40
2019-02-16T11:30:59.617Z,8.50
2019-02-16T11:33:40.441Z,8.60
2019-02-16T11:36:18.203Z,8.70
2019-02-16T11:38:59.300Z,8.80
2019-02-16T11:41:34.393Z,8.80
2019-02-16T11:44:15.371Z,8.90
2019-02-16T11:46:50.504Z,9.00
2019-02-16T11:49:41.786Z,9.10
2019-02-16T11:52:25.965Z,9.20
2019-02-16T11:55:03.967Z,9.30
2019-02-16T11:57:57.067Z,9.50
2019-02-16T12:00:35.046Z,9.60
2019-02-16T12:03:10.123Z,9.70
2019-02-16T12:05:45.197Z,9.80
2019-02-16T12:08:26.143Z,9.90
2019-02-16T12:11:01.220Z,10.00
2019-02-16T12:13:36.294Z,10.20
2019-02-16T12:16:13.990Z,10.30
2019-02-16T12:18:51.605Z,10.40
2019-02-16T12:21:32.169Z,10.60
2019-02-16T12:24:19.215Z,10.70
2019-02-16T12:27:07.401Z,10.80
2019-02-16T12:29:48.388Z,10.90
2019-02-16T12:32:26.181Z,11.00
2019-02-16T12:35:17.408Z,11.10
2019-02-16T12:37:58.077Z,11.20
2019-02-16T12:40:33.176Z,11.30
2019-02-16T12:43:23.512Z,11.40
2019-02-16T12:46:07.139Z,11.50
2019-02-16T12:48:42.227Z,11.60
2019-02-16T12:51:26.952Z,11.70
2019-02-16T12:54:02.128Z,11.70
2019-02-16T12:56:41.917Z,11.80
2019-02-16T12:59:34.969Z,11.90
2019-02-16T13:02:26.089Z,12.00
2019-02-16T13:05:10.069Z,12.10
2019-02-16T13:07:53.819Z,12.10
2019-02-16T13:10:34.730Z,12.20
2019-02-16T13:13:25.986Z,12.30
2019-02-16T13:16:13.126Z,12.30
2019-02-16T13:19:03.493Z,12.40
2019-02-16T13:21:44.542Z,12.40
2019-02-16T13:24:34.554Z,12.50
2019-02-16T13:27:15.360Z,12.60
2019-02-16T13:29:56.538Z,12.70
2019-02-16T13:32:37.637Z,12.80
2019-02-16T13:35:12.716Z,12.80
2019-02-16T13:37:50.212Z,12.90
2019-02-16T13:40:25.283Z,12.90
2019-02-16T13:43:12.478Z,13.00
2019-02-16T13:45:56.697Z,13.00
2019-02-16T13:48:37.742Z,13.10
2019-02-16T13:51:15.792Z,13.10
2019-02-16T13:53:53.946Z,13.20
2019-02-16T13:56:32.006Z,13.30
2019-02-16T13:59:19.114Z,13.40
2019-02-16T14:02:10.491Z,13.40
2019-02-16T14:04:48.609Z,13.50
2019-02-16T14:07:23.777Z,13.50
2019-02-16T14:09:58.841Z,13.50
2019-02-16T14:12:46.218Z,13.50
2019-02-16T14:15:21.293Z,13.50
2019-02-16T14:17:54.748Z,13.70
2019-02-16T14:20:28.180Z,13.70
2019-02-16T14:23:01.629Z,13.70
2019-02-16T14:25:43.724Z,13.80
2019-02-16T14:28:14.701Z,13.90
2019-02-16T14:30:48.124Z,13.90
2019-02-16T14:33:21.574Z,14.00
2019-02-16T14:35:55.002Z,14.00
2019-02-16T14:38:33.054Z,14.10
2019-02-16T14:41:06.484Z,14.20
2019-02-16T14:43:39.935Z,14.30
2019-02-16T14:46:13.361Z,14.40
2019-02-16T14:48:46.831Z,14.60
2019-02-16T14:51:20.288Z,14.80
2019-02-16T14:53:53.801Z,15.10
2019-02-16T14:56:27.232Z,15.30
2019-02-16T14:59:00.678Z,15.80
2019-02-16T15:01:34.105Z,16.40
2019-02-16T15:04:07.555Z,16.50
2019-02-16T15:06:40.984Z,16.50
2019-02-16T15:09:14.455Z,16.90
2019-02-16T15:11:47.886Z,17.50
2019-02-16T15:14:21.349Z,18.00
2019-02-16T15:16:54.781Z,18.30
2019-02-16T15:19:28.225Z,18.50
2019-02-16T15:22:01.664Z,18.60
2019-02-16T15:24:35.104Z,18.20
2019-02-16T15:27:08.545Z,17.50
2019-02-16T15:29:41.985Z,16.60
2019-02-16T15:32:15.408Z,16.10
2019-02-16T15:34:48.857Z,15.70
2019-02-16T15:37:22.304Z,15.30
2019-02-16T15:39:55.748Z,15.00
2019-02-16T15:42:29.187Z,14.70
2019-02-16T15:45:02.633Z,14.50
2019-02-16T15:47:36.066Z,14.30
2019-02-16T15:50:11.854Z,14.10
2019-02-16T15:52:45.295Z,13.80
2019-02-16T15:55:18.758Z,13.70
2019-02-16T15:57:52.181Z,13.40
2019-02-16T16:00:27.021Z,13.20
2019-02-16T16:03:00.641Z,12.90
2019-02-16T16:05:35.612Z,12.70
2019-02-16T16:08:10.681Z,12.50
2019-02-16T16:10:54.680Z,12.30
2019-02-16T16:13:32.489Z,12.10
2019-02-16T16:16:10.509Z,11.90
2019-02-16T16:18:45.581Z,11.70
2019-02-16T16:21:26.476Z,11.60
2019-02-16T16:24:07.246Z,11.40
2019-02-16T16:26:45.513Z,11.30
2019-02-16T16:29:26.565Z,11.10
2019-02-16T16:32:01.658Z,11.00
2019-02-16T16:34:52.882Z,10.90
2019-02-16T16:37:27.988Z,10.80
2019-02-16T16:40:21.260Z,10.60
2019-02-16T16:43:11.444Z,10.50
2019-02-16T16:45:46.521Z,10.40
2019-02-16T16:48:30.410Z,10.20
2019-02-16T16:51:07.889Z,10.10
2019-02-16T16:53:42.972Z,10.00
2019-02-16T16:56:28.457Z,10.00
2019-02-16T16:59:07.052Z,9.90
2019-02-16T17:01:44.796Z,9.80
2019-02-16T17:04:28.565Z,9.70
2019-02-16T17:07:03.648Z,9.60
2019-02-16T17:09:44.850Z,9.50
2019-02-16T17:12:34.582Z,9.50
2019-02-16T17:15:05.655Z,9.50
2019-02-16T17:17:46.811Z,9.40
2019-02-16T17:20:25.011Z,9.30
2019-02-16T17:23:00.095Z,9.20
2019-02-16T17:25:37.611Z,9.20
2019-02-16T17:28:28.697Z,9.10
2019-02-16T17:31:03.768Z,9.00
2019-02-16T17:33:38.850Z,8.90
2019-02-16T17:36:26.044Z,8.90
2019-02-16T17:39:07.149Z,8.80
2019-02-16T17:41:45.329Z,8.70
2019-02-16T17:44:20.409Z,8.70
2019-02-16T17:47:11.972Z,8.60
2019-02-16T17:49:59.226Z,8.60
2019-02-16T17:52:40.090Z,8.50
2019-02-16T17:55:24.149Z,8.50
2019-02-16T17:57:59.224Z,8.40
2019-02-16T18:00:37.225Z,8.30
2019-02-16T18:03:21.423Z,8.30
2019-02-16T18:06:02.313Z,8.20
2019-02-16T18:08:43.069Z,8.10
2019-02-16T18:11:18.136Z,8.10
2019-02-16T18:14:05.109Z,8.00
2019-02-16T18:16:45.897Z,8.00
2019-02-16T18:19:29.867Z,7.90
2019-02-16T18:22:04.930Z,7.80
2019-02-16T18:24:43.217Z,7.70
2019-02-16T18:27:26.936Z,7.70
2019-02-16T18:30:04.743Z,7.60
2019-02-16T18:32:39.816Z,7.50
2019-02-16T18:35:23.812Z,7.50
2019-02-16T18:38:03.532Z,7.40
2019-02-16T18:40:44.133Z,7.30
2019-02-16T18:43:31.157Z,7.20
2019-02-16T18:46:09.203Z,7.10
2019-02-16T18:48:44.441Z,7.10
2019-02-16T18:51:22.539Z,7.10
2019-02-16T18:54:03.585Z,7.00
2019-02-16T18:56:38.744Z,6.90
2019-02-16T18:59:29.992Z,6.80
2019-02-16T19:02:05.158Z,6.80
2019-02-16T19:04:46.285Z,6.70
2019-02-16T19:07:23.916Z,6.70
2019-02-16T19:10:17.181Z,6.70
2019-02-16T19:13:07.509Z,6.60
2019-02-16T19:15:45.520Z,6.60
2019-02-16T19:18:36.498Z,6.50
2019-02-16T19:21:20.233Z,6.50
2019-02-16T19:23:58.273Z,6.50
2019-02-16T19:26:39.297Z,6.40
2019-02-16T19:29:29.402Z,6.40
2019-02-16T19:32:20.791Z,6.40
2019-02-16T19:34:55.851Z,6.30
2019-02-16T19:37:30.938Z,6.30
2019-02-16T19:40:15.713Z,6.20
2019-02-16T19:42:53.550Z,6.20
2019-02-16T19:45:37.995Z,6.10
2019-02-16T19:48:16.823Z,6.10
2019-02-16T19:51:08.398Z,6.00
2019-02-16T19:53:52.544Z,5.90
2019-02-16T19:56:36.764Z,5.90
2019-02-16T19:59:20.567Z,5.90
2019-02-16T20:01:55.655Z,5.80
2019-02-16T20:04:42.665Z,5.90
2019-02-16T20:07:20.468Z,5.80
2019-02-16T20:10:01.298Z,5.70
2019-02-16T20:12:38.835Z,5.70
2019-02-16T20:15:13.921Z,5.60
2019-02-16T20:18:07.309Z,5.60
2019-02-16T20:20:45.084Z,5.60
2019-02-16T20:23:22.853Z,5.50
2019-02-16T20:26:14.033Z,5.50
2019-02-16T20:28:49.116Z,5.50
2019-02-16T20:31:24.191Z,5.40
2019-02-16T20:34:08.509Z,5.40
2019-02-16T20:36:43.580Z,5.40
2019-02-16T20:39:30.561Z,5.40
2019-02-16T20:42:17.417Z,5.30
2019-02-16T20:44:58.471Z,5.30
2019-02-16T20:47:48.784Z,5.20
2019-02-16T20:50:32.840Z,5.20
2019-02-16T20:53:10.734Z,5.10
2019-02-16T20:55:45.801Z,5.10
2019-02-16T20:58:20.881Z,5.00
2019-02-16T21:00:59.007Z,4.90
2019-02-16T21:03:50.517Z,5.00
2019-02-16T21:06:43.940Z,4.90
2019-02-16T21:09:27.941Z,4.90
2019-02-16T21:12:03.010Z,4.80
2019-02-16T21:14:40.489Z,4.70
2019-02-16T21:17:15.560Z,4.70
2019-02-16T21:19:56.461Z,4.70
2019-02-16T21:22:34.474Z,4.60
2019-02-16T21:25:12.350Z,4.60
2019-02-16T21:27:57.979Z,4.60
2019-02-16T21:30:38.849Z,4.40
2019-02-16T21:33:13.917Z,4.40
2019-02-16T21:36:04.193Z,4.30
2019-02-16T21:38:48.486Z,4.20
2019-02-16T21:41:29.536Z,4.10
2019-02-16T21:44:04.628Z,4.10
2019-02-16T21:46:39.906Z,4.20
2019-02-16T21:49:15.003Z,4.20
2019-02-16T21:52:02.326Z,4.20
2019-02-16T21:54:37.415Z,4.20
2019-02-16T21:57:15.242Z,4.20
2019-02-16T22:00:02.103Z,4.20
2019-02-16T22:02:40.064Z,4.10
2019-02-16T22:05:18.145Z,4.10
2019-02-16T22:08:05.246Z,4.00
2019-02-16T22:10:40.331Z,4.00
2019-02-16T22:13:13.745Z,4.00
2019-02-16T22:15:47.188Z,4.00
2019-02-16T22:18:20.620Z,4.00
2019-02-16T22:20:54.057Z,3.90
2019-02-16T22:23:27.472Z,4.00
2019-02-16T22:26:00.930Z,4.00
2019-02-16T22:28:34.352Z,3.90
2019-02-16T22:31:07.799Z,3.90
2019-02-16T22:33:41.233Z,3.80
2019-02-16T22:36:14.668Z,3.90
2019-02-16T22:38:48.107Z,3.90
2019-02-16T22:41:21.544Z,3.90
2019-02-16T22:43:55.001Z,3.90
2019-02-16T22:46:28.441Z,3.80
2019-02-16T22:49:01.894Z,3.80
2019-02-16T22:51:35.351Z,3.80
2019-02-16T22:54:08.779Z,3.80
2019-02-16T22:56:42.225Z,3.70
2019-02-16T22:59:15.663Z,3.60
2019-02-16T23:01:49.102Z,3.60
2019-02-16T23:04:22.527Z,3.60
2019-02-16T23:06:55.960Z,3.60
2019-02-16T23:09:29.769Z,3.50
2019-02-16T23:12:03.266Z,3.40
2019-02-16T23:14:36.695Z,3.30
2019-02-16T23:17:10.128Z,3.20
2019-02-16T23:19:43.936Z,3.20
2019-02-16T23:22:17.376Z,3.20
2019-02-16T23:24:50.805Z,3.20
2019-02-16T23:27:24.272Z,3.20
2019-02-16T23:29:57.698Z,3.20
2019-02-16T23:32:31.146Z,3.30
2019-02-16T23:35:05.840Z,3.30
2019-02-16T23:37:39.337Z,3.20
2019-02-16T23:40:12.828Z,3.20
2019-02-16T23:42:46.272Z,3.10
2019-02-16T23:45:19.695Z,3.00
2019-02-16T23:47:53.134Z,3.00
2019-02-16T23:50:26.562Z,3.10
2019-02-16T23:53:00.013Z,3.10
2019-02-16T23:55:33.441Z,3.10
2019-02-16T23:58:06.874Z,3.00
